createdAt,value
2022-07-25T00:01:21.670Z,4.80
2022-07-25T00:03:50.752Z,4.72
2022-07-25T00:06:18.149Z,4.15
2022-07-25T00:08:45.214Z,4.22
2022-07-25T00:11:12.200Z,4.13
2022-07-25T00:13:39.246Z,3.50
2022-07-25T00:16:07.068Z,3.70
2022-07-25T00:18:34.224Z,3.88
2022-07-25T00:21:01.365Z,4.55
2022-07-25T00:23:28.258Z,4.35
2022-07-25T00:25:55.296Z,5.32
2022-07-25T00:28:22.220Z,5.97
2022-07-25T00:30:49.938Z,5.68
2022-07-25T00:33:16.988Z,5.40
2022-07-25T00:35:44.151Z,5.90
2022-07-25T00:38:14.177Z,5.20
2022-07-25T00:40:41.470Z,6.03
2022-07-25T00:43:08.491Z,5.60
2022-07-25T00:45:36.065Z,5.25
2022-07-25T00:48:03.274Z,5.47
2022-07-25T00:50:30.956Z,5.47
2022-07-25T00:52:58.331Z,5.57
2022-07-25T00:55:26.810Z,5.22
2022-07-25T00:57:56.485Z,6.10
2022-07-25T01:00:23.841Z,6.22
2022-07-25T01:02:50.977Z,6.30
2022-07-25T01:05:18.153Z,7.65
2022-07-25T01:07:46.802Z,7.70
2022-07-25T01:10:13.831Z,7.78
2022-07-25T01:12:53.565Z,8.18
2022-07-25T01:15:24.180Z,9.77
2022-07-25T01:17:51.805Z,10.80
2022-07-25T01:20:23.868Z,12.50
2022-07-25T01:22:51.304Z,14.13
2022-07-25T01:25:19.469Z,14.70
2022-07-25T01:27:52.954Z,13.38
2022-07-25T01:30:24.375Z,14.40
2022-07-25T01:32:52.356Z,13.95
2022-07-25T01:35:20.125Z,17.52
2022-07-25T01:37:47.495Z,17.45
2022-07-25T01:40:15.231Z,18.50
2022-07-25T01:42:43.659Z,22.17
2022-07-25T01:45:12.714Z,22.95
2022-07-25T01:47:40.624Z,21.50
2022-07-25T01:50:09.199Z,22.75
2022-07-25T01:52:37.873Z,25.38
2022-07-25T01:55:06.146Z,25.60
2022-07-25T01:57:33.439Z,25.45
2022-07-25T02:00:08.522Z,26.13
2022-07-25T02:02:45.403Z,26.33
2022-07-25T02:05:15.122Z,27.17
2022-07-25T02:07:42.581Z,25.83
2022-07-25T02:10:09.877Z,24.63
2022-07-25T02:12:36.965Z,25.45
2022-07-25T02:15:04.349Z,30.20
2022-07-25T02:17:31.314Z,28.30
2022-07-25T02:19:58.299Z,30.27
2022-07-25T02:22:25.237Z,31.33
2022-07-25T02:24:52.317Z,31.85
2022-07-25T02:27:19.189Z,33.15
2022-07-25T02:29:46.142Z,38.67
2022-07-25T02:32:13.063Z,38.05
2022-07-25T02:34:39.959Z,37.00
2022-07-25T02:37:06.886Z,38.55
2022-07-25T02:39:33.838Z,37.40
2022-07-25T02:42:00.912Z,39.00
2022-07-25T02:44:27.863Z,38.78
2022-07-25T02:46:54.729Z,38.00
2022-07-25T02:49:21.788Z,37.30
2022-07-25T02:51:48.758Z,37.45
2022-07-25T02:54:16.220Z,41.47
2022-07-25T02:56:43.479Z,42.63
2022-07-25T02:59:10.429Z,38.80
2022-07-25T03:01:37.492Z,41.63
2022-07-25T03:04:05.295Z,42.80
2022-07-25T03:06:32.464Z,41.80
2022-07-25T03:08:59.362Z,41.38
2022-07-25T03:11:26.408Z,40.38
2022-07-25T03:13:53.364Z,42.85
2022-07-25T03:16:20.367Z,42.55
2022-07-25T03:18:47.421Z,41.45
2022-07-25T03:21:14.328Z,38.58
2022-07-25T03:23:41.278Z,42.58
2022-07-25T03:26:08.226Z,40.00
2022-07-25T03:28:35.214Z,43.72
2022-07-25T03:31:03.238Z,42.30
2022-07-25T03:33:30.264Z,41.08
2022-07-25T03:35:57.178Z,38.28
2022-07-25T03:38:24.696Z,38.50
2022-07-25T03:40:51.725Z,39.25
2022-07-25T03:43:18.722Z,38.85
2022-07-25T03:45:45.709Z,38.85
2022-07-25T03:48:12.853Z,40.25
2022-07-25T03:50:39.762Z,37.47
2022-07-25T03:53:06.701Z,37.75
2022-07-25T03:55:38.062Z,38.50
2022-07-25T03:58:05.239Z,40.83
2022-07-25T04:00:32.157Z,36.85
2022-07-25T04:02:59.142Z,36.45
2022-07-25T04:05:26.188Z,35.40
2022-07-25T04:07:53.123Z,36.85
2022-07-25T04:10:20.168Z,39.70
2022-07-25T04:12:47.074Z,40.63
2022-07-25T04:15:14.127Z,40.35
2022-07-25T04:17:41.076Z,40.80
2022-07-25T04:20:09.070Z,36.63
2022-07-25T04:22:36.955Z,38.97
2022-07-25T04:25:04.861Z,38.58
2022-07-25T04:27:31.802Z,37.55
2022-07-25T04:29:59.477Z,37.10
2022-07-25T04:32:26.421Z,35.20
2022-07-25T04:34:55.330Z,37.25
2022-07-25T04:37:22.300Z,37.22
2022-07-25T04:39:49.283Z,33.72
2022-07-25T04:42:16.192Z,35.00
2022-07-25T04:44:43.136Z,33.20
2022-07-25T04:47:10.077Z,32.00
2022-07-25T04:49:37.060Z,35.10
2022-07-25T04:52:04.402Z,32.78
2022-07-25T04:54:31.375Z,32.58
2022-07-25T04:56:58.550Z,32.92
2022-07-25T04:59:25.487Z,29.88
2022-07-25T05:01:52.565Z,29.25
2022-07-25T05:04:19.519Z,30.70
2022-07-25T05:06:46.429Z,29.98
2022-07-25T05:09:13.422Z,28.77
2022-07-25T05:11:45.108Z,28.65
2022-07-25T05:14:14.366Z,28.45
2022-07-25T05:16:41.477Z,28.23
2022-07-25T05:19:09.651Z,27.90
2022-07-25T05:21:38.292Z,26.00
2022-07-25T05:24:06.084Z,26.58
2022-07-25T05:26:33.362Z,26.48
2022-07-25T05:29:00.322Z,25.67
2022-07-25T05:31:27.389Z,25.33
2022-07-25T05:33:54.280Z,24.85
2022-07-25T05:36:21.178Z,25.02
2022-07-25T05:38:48.144Z,23.50
2022-07-25T05:41:15.868Z,23.25
2022-07-25T05:43:46.115Z,22.30
2022-07-25T05:46:13.636Z,20.70
2022-07-25T05:48:41.624Z,20.08
2022-07-25T05:51:08.609Z,18.75
2022-07-25T05:53:36.498Z,18.65
2022-07-25T05:56:04.246Z,17.50
2022-07-25T05:58:31.593Z,15.15
2022-07-25T06:00:58.978Z,13.55
2022-07-25T06:03:26.228Z,12.02
2022-07-25T06:05:56.615Z,11.90
2022-07-25T06:08:23.930Z,10.73
2022-07-25T06:10:51.883Z,10.02
2022-07-25T06:13:19.006Z,10.20
2022-07-25T06:15:47.894Z,9.52
2022-07-25T06:18:15.155Z,9.77
2022-07-25T06:20:42.375Z,9.85
2022-07-25T06:23:09.331Z,8.77
2022-07-25T06:25:36.358Z,8.95
2022-07-25T06:28:03.538Z,8.98
2022-07-25T06:30:30.579Z,9.27
2022-07-25T06:32:57.586Z,8.75
2022-07-25T06:35:24.763Z,9.57
2022-07-25T06:37:51.677Z,9.05
2022-07-25T06:40:18.606Z,9.02
2022-07-25T06:42:47.710Z,8.82
2022-07-25T06:45:15.693Z,9.02
2022-07-25T06:47:44.131Z,8.95
2022-07-25T06:50:15.397Z,8.98
2022-07-25T06:52:43.022Z,8.73
2022-07-25T06:55:12.014Z,8.25
2022-07-25T06:57:39.862Z,8.45
2022-07-25T07:00:11.027Z,7.57
2022-07-25T07:02:56.810Z,7.47
2022-07-25T07:05:28.428Z,7.50
2022-07-25T07:07:55.882Z,7.55
2022-07-25T07:10:23.688Z,7.05
2022-07-25T07:12:51.468Z,6.22
2022-07-25T07:15:18.477Z,6.63
2022-07-25T07:17:45.383Z,6.65
2022-07-25T07:20:12.703Z,6.15
2022-07-25T07:22:49.066Z,5.97
2022-07-25T07:25:19.599Z,6.18
2022-07-25T07:27:47.909Z,5.88
2022-07-25T07:30:16.795Z,5.72
2022-07-25T07:32:47.015Z,5.65
2022-07-25T07:35:16.560Z,5.10
2022-07-25T07:37:44.553Z,5.57
2022-07-25T07:40:16.863Z,5.47
2022-07-25T07:42:48.762Z,5.30
2022-07-25T07:45:22.732Z,5.70
2022-07-25T07:47:53.201Z,6.05
2022-07-25T07:50:25.449Z,5.15
2022-07-25T07:52:54.931Z,5.22
2022-07-25T07:55:40.940Z,5.53
2022-07-25T07:58:08.384Z,4.72
2022-07-25T08:00:36.393Z,4.78
2022-07-25T08:03:04.086Z,4.20
2022-07-25T08:05:40.320Z,4.32
2022-07-25T08:08:10.016Z,4.57
2022-07-25T08:10:40.719Z,4.38
2022-07-25T08:13:24.092Z,4.40
2022-07-25T08:15:57.236Z,4.88
2022-07-25T08:18:26.449Z,4.50
2022-07-25T08:20:54.553Z,4.10
2022-07-25T08:23:22.463Z,4.45
2022-07-25T08:25:49.449Z,4.22
2022-07-25T08:28:16.465Z,4.25
2022-07-25T08:30:43.827Z,4.60
2022-07-25T08:33:14.440Z,4.70
2022-07-25T08:35:52.134Z,4.22
2022-07-25T08:38:20.152Z,4.25
2022-07-25T08:40:47.834Z,4.65
2022-07-25T08:43:16.965Z,4.72
2022-07-25T08:45:53.069Z,4.22
2022-07-25T08:48:26.277Z,4.40
2022-07-25T08:50:57.100Z,4.45
2022-07-25T08:53:34.393Z,4.22
2022-07-25T08:56:11.242Z,4.60
2022-07-25T08:58:41.758Z,5.10
2022-07-25T09:01:11.001Z,4.70
2022-07-25T09:03:38.612Z,4.60
2022-07-25T09:06:20.532Z,4.57
2022-07-25T09:08:57.541Z,4.28
2022-07-25T09:11:36.474Z,4.90
2022-07-25T09:14:10.701Z,4.40
2022-07-25T09:16:42.019Z,4.40
2022-07-25T09:19:19.186Z,4.55
2022-07-25T09:22:02.882Z,4.55
2022-07-25T09:24:32.430Z,4.45
2022-07-25T09:27:09.222Z,4.53
2022-07-25T09:29:39.707Z,4.40
2022-07-25T09:32:22.666Z,4.47
2022-07-25T09:34:50.963Z,4.30
2022-07-25T09:37:25.053Z,4.80
2022-07-25T09:39:52.708Z,4.28
2022-07-25T09:42:27.573Z,5.38
2022-07-25T09:45:14.599Z,4.78
2022-07-25T09:47:58.422Z,4.43
2022-07-25T09:50:28.466Z,4.80
2022-07-25T09:52:58.700Z,4.68
2022-07-25T09:55:25.733Z,4.18
2022-07-25T09:57:52.985Z,4.13
2022-07-25T10:00:27.167Z,4.53
2022-07-25T10:03:17.459Z,4.30
2022-07-25T10:06:07.350Z,4.80
2022-07-25T10:08:41.564Z,4.30
2022-07-25T10:11:26.417Z,4.60
2022-07-25T10:13:55.398Z,4.65
2022-07-25T10:16:24.470Z,4.68
2022-07-25T10:18:57.089Z,4.53
2022-07-25T10:21:28.332Z,4.82
2022-07-25T10:24:10.924Z,4.50
2022-07-25T10:26:51.010Z,4.65
2022-07-25T10:29:18.061Z,4.40
2022-07-25T10:31:50.275Z,4.25
2022-07-25T10:34:31.774Z,4.35
2022-07-25T10:37:17.958Z,4.70
2022-07-25T10:39:46.114Z,4.40
2022-07-25T10:42:16.086Z,4.75
2022-07-25T10:44:47.502Z,4.70
2022-07-25T10:47:16.975Z,4.78
2022-07-25T10:50:13.886Z,3.80
2022-07-25T10:52:42.569Z,4.60
2022-07-25T10:55:10.200Z,4.40
2022-07-25T10:57:45.343Z,4.22
2022-07-25T11:00:22.859Z,4.07
2022-07-25T11:02:50.507Z,4.00
2022-07-25T11:05:17.429Z,4.43
2022-07-25T11:08:20.140Z,4.20
2022-07-25T11:10:41.347Z,4.45
2022-07-25T11:13:15.075Z,4.10
2022-07-25T11:15:43.804Z,4.63
2022-07-25T11:18:11.604Z,4.20
2022-07-25T11:20:38.527Z,4.50
2022-07-25T11:23:05.427Z,4.95
2022-07-25T11:25:32.448Z,4.30
2022-07-25T11:28:01.310Z,4.22
2022-07-25T11:30:29.625Z,5.00
2022-07-25T11:32:59.506Z,3.80
2022-07-25T11:35:33.100Z,4.10
2022-07-25T11:38:02.292Z,4.20
2022-07-25T11:40:31.472Z,3.85
2022-07-25T11:42:59.757Z,3.78
2022-07-25T11:45:33.975Z,4.50
2022-07-25T11:48:14.081Z,4.05
2022-07-25T11:50:44.345Z,3.95
2022-07-25T11:53:15.174Z,3.85
2022-07-25T11:55:43.686Z,5.00
2022-07-25T11:58:13.572Z,4.43
2022-07-25T12:00:48.736Z,4.10
2022-07-25T12:03:21.080Z,4.45
2022-07-25T12:05:50.029Z,4.20
2022-07-25T12:08:21.024Z,3.92
2022-07-25T12:10:54.866Z,4.22
2022-07-25T12:13:29.809Z,4.10
2022-07-25T12:15:59.500Z,4.03
2022-07-25T12:18:27.858Z,4.32
2022-07-25T12:20:54.981Z,4.40
2022-07-25T12:23:24.327Z,4.07
2022-07-25T12:25:51.361Z,3.90
2022-07-25T12:28:18.321Z,4.35
2022-07-25T12:30:46.866Z,4.50
2022-07-25T12:33:14.454Z,4.53
2022-07-25T12:35:43.709Z,4.07
2022-07-25T12:38:11.432Z,4.00
2022-07-25T12:40:38.512Z,3.85
2022-07-25T12:43:05.928Z,3.65
2022-07-25T12:45:33.071Z,4.07
2022-07-25T12:48:00.022Z,3.72
2022-07-25T12:50:26.999Z,3.70
2022-07-25T12:52:54.476Z,3.83
2022-07-25T12:55:22.104Z,4.22
2022-07-25T12:57:49.678Z,4.30
2022-07-25T13:00:20.989Z,4.30
2022-07-25T13:02:49.473Z,4.22
2022-07-25T13:05:16.798Z,5.10
2022-07-25T13:07:43.920Z,3.95
2022-07-25T13:10:12.601Z,4.80
2022-07-25T13:12:39.490Z,4.32
2022-07-25T13:15:07.515Z,4.20
2022-07-25T13:17:34.766Z,4.40
2022-07-25T13:20:01.840Z,4.32
2022-07-25T13:22:28.912Z,3.95
2022-07-25T13:24:56.290Z,4.40
2022-07-25T13:27:23.745Z,4.60
2022-07-25T13:29:54.803Z,4.43
2022-07-25T13:32:22.718Z,4.85
2022-07-25T13:34:50.138Z,4.30
2022-07-25T13:37:17.052Z,4.30
2022-07-25T13:39:44.002Z,4.20
2022-07-25T13:42:11.143Z,4.82
2022-07-25T13:44:38.038Z,4.40
2022-07-25T13:47:05.286Z,4.72
2022-07-25T13:49:32.743Z,4.72
2022-07-25T13:51:59.827Z,4.47
2022-07-25T13:54:26.704Z,4.97
2022-07-25T13:56:53.661Z,4.72
2022-07-25T13:59:21.659Z,4.85
2022-07-25T14:01:50.467Z,4.22
2022-07-25T14:04:17.952Z,4.00
2022-07-25T14:06:45.030Z,4.53
2022-07-25T14:09:12.031Z,4.57
2022-07-25T14:11:38.975Z,4.90
2022-07-25T14:14:05.967Z,4.57
2022-07-25T14:16:34.006Z,4.90
2022-07-25T14:19:02.189Z,4.40
2022-07-25T14:21:30.066Z,4.68
2022-07-25T14:24:06.428Z,4.50
2022-07-25T14:26:35.167Z,4.20
2022-07-25T14:29:03.377Z,4.40
2022-07-25T14:31:36.205Z,4.28
2022-07-25T14:34:05.595Z,4.25
2022-07-25T14:36:32.823Z,4.53
2022-07-25T14:39:00.004Z,4.22
2022-07-25T14:41:27.014Z,4.82
2022-07-25T14:43:53.983Z,4.63
2022-07-25T14:46:21.079Z,4.10
2022-07-25T14:48:48.005Z,4.35
2022-07-25T14:51:14.922Z,4.30
2022-07-25T14:53:41.768Z,4.88
2022-07-25T14:56:08.741Z,4.30
2022-07-25T14:58:36.124Z,4.40
2022-07-25T15:01:03.157Z,4.63
2022-07-25T15:03:30.346Z,4.18
2022-07-25T15:05:57.728Z,4.25
2022-07-25T15:08:24.782Z,4.07
2022-07-25T15:10:51.759Z,3.60
2022-07-25T15:13:31.103Z,4.15
2022-07-25T15:15:59.669Z,4.20
2022-07-25T15:18:26.722Z,3.85
2022-07-25T15:20:55.223Z,3.70
2022-07-25T15:23:24.702Z,3.90
2022-07-25T15:26:03.176Z,3.88
2022-07-25T15:28:33.605Z,4.15
2022-07-25T15:31:01.263Z,4.30
2022-07-25T15:33:28.603Z,3.92
2022-07-25T15:35:55.729Z,3.92
2022-07-25T15:38:22.888Z,4.20
2022-07-25T15:40:49.811Z,4.15
2022-07-25T15:43:16.744Z,4.10
2022-07-25T15:45:46.281Z,4.03
2022-07-25T15:48:16.159Z,3.97
2022-07-25T15:50:51.421Z,4.50
2022-07-25T15:53:18.802Z,4.25
2022-07-25T15:55:46.031Z,4.00
2022-07-25T15:58:13.312Z,4.13
2022-07-25T16:00:41.448Z,4.40
2022-07-25T16:03:09.445Z,4.55
2022-07-25T16:05:39.291Z,3.75
2022-07-25T16:08:08.420Z,4.13
2022-07-25T16:10:36.150Z,4.32
2022-07-25T16:13:03.608Z,3.95
2022-07-25T16:15:30.475Z,4.07
2022-07-25T16:18:02.350Z,4.22
2022-07-25T16:20:32.205Z,4.00
2022-07-25T16:23:00.470Z,3.75
2022-07-25T16:25:29.783Z,3.90
2022-07-25T16:27:58.980Z,3.78
2022-07-25T16:30:27.532Z,4.13
2022-07-25T16:32:54.885Z,3.47
2022-07-25T16:35:22.211Z,3.78
2022-07-25T16:37:49.257Z,3.80
2022-07-25T16:40:16.265Z,3.63
2022-07-25T16:42:43.544Z,4.00
2022-07-25T16:45:11.142Z,4.07
2022-07-25T16:47:40.050Z,3.47
2022-07-25T16:50:07.494Z,4.00
2022-07-25T16:52:34.775Z,3.55
2022-07-25T16:55:01.698Z,3.72
2022-07-25T16:57:28.741Z,3.60
2022-07-25T16:59:55.691Z,3.58
2022-07-25T17:02:27.494Z,3.60
2022-07-25T17:04:56.239Z,3.67
2022-07-25T17:07:23.456Z,4.10
2022-07-25T17:09:50.394Z,3.60
2022-07-25T17:12:17.548Z,3.67
2022-07-25T17:14:45.597Z,3.53
2022-07-25T17:17:12.705Z,3.50
2022-07-25T17:19:40.380Z,3.80
2022-07-25T17:22:09.146Z,3.58
2022-07-25T17:24:36.508Z,3.42
2022-07-25T17:27:04.284Z,3.97
2022-07-25T17:29:31.240Z,3.67
2022-07-25T17:31:58.314Z,3.85
2022-07-25T17:34:26.790Z,3.50
2022-07-25T17:36:54.820Z,3.40
2022-07-25T17:39:22.109Z,3.70
2022-07-25T17:41:49.117Z,3.80
2022-07-25T17:44:16.441Z,3.95
2022-07-25T17:46:44.314Z,3.40
2022-07-25T17:49:11.547Z,3.90
2022-07-25T17:51:38.503Z,3.65
2022-07-25T17:54:05.842Z,3.88
2022-07-25T17:56:33.448Z,3.60
2022-07-25T17:59:00.296Z,3.72
2022-07-25T18:01:27.178Z,4.05
2022-07-25T18:03:54.264Z,3.60
2022-07-25T18:06:24.073Z,3.75
2022-07-25T18:08:54.739Z,3.78
2022-07-25T18:11:21.577Z,3.90
2022-07-25T18:13:48.613Z,4.45
2022-07-25T18:16:15.714Z,5.28
2022-07-25T18:18:42.886Z,4.93
2022-07-25T18:21:09.831Z,5.32
2022-07-25T18:23:37.333Z,5.95
2022-07-25T18:26:05.146Z,6.07
2022-07-25T18:28:32.156Z,5.88
2022-07-25T18:30:59.097Z,5.95
2022-07-25T18:33:26.422Z,5.78
2022-07-25T18:35:53.319Z,5.95
2022-07-25T18:38:20.407Z,5.57
2022-07-25T18:40:49.572Z,4.82
2022-07-25T18:43:21.305Z,5.60
2022-07-25T18:45:50.764Z,5.20
2022-07-25T18:48:18.414Z,6.30
2022-07-25T18:50:45.310Z,17.98
2022-07-25T18:53:12.178Z,42.47
2022-07-25T18:55:39.245Z,84.07
2022-07-25T18:58:09.192Z,91.03
2022-07-25T19:00:36.061Z,105.15
2022-07-25T19:03:03.079Z,143.75
2022-07-25T19:05:30.000Z,147.15
2022-07-25T19:07:59.726Z,154.85
2022-07-25T19:10:26.630Z,152.05
2022-07-25T19:12:53.484Z,158.55
2022-07-25T19:15:20.380Z,149.75
2022-07-25T19:17:47.549Z,146.77
2022-07-25T19:20:15.334Z,153.50
2022-07-25T19:22:42.139Z,181.23
2022-07-25T19:25:10.879Z,172.48
2022-07-25T19:27:40.143Z,145.82
2022-07-25T19:30:16.770Z,146.55
2022-07-25T19:32:45.735Z,145.20
2022-07-25T19:35:13.426Z,153.35
2022-07-25T19:37:40.452Z,156.27
2022-07-25T19:40:08.282Z,158.35
2022-07-25T19:42:35.864Z,145.18
2022-07-25T19:45:03.317Z,162.52
2022-07-25T19:47:30.168Z,146.05
2022-07-25T19:49:57.189Z,154.82
2022-07-25T19:52:24.142Z,169.88
2022-07-25T19:54:51.313Z,158.20
2022-07-25T19:57:18.263Z,157.75
2022-07-25T19:59:45.260Z,160.88
2022-07-25T20:02:13.079Z,146.23
2022-07-25T20:04:39.985Z,138.50
2022-07-25T20:07:07.127Z,103.18
2022-07-25T20:09:34.863Z,86.45
2022-07-25T20:12:03.311Z,64.30
2022-07-25T20:14:30.188Z,49.20
2022-07-25T20:16:57.871Z,40.30
2022-07-25T20:19:25.022Z,33.65
2022-07-25T20:21:52.314Z,32.15
2022-07-25T20:24:21.637Z,24.85
2022-07-25T20:26:49.296Z,19.75
2022-07-25T20:29:16.707Z,13.88
2022-07-25T20:31:44.999Z,11.57
2022-07-25T20:34:15.625Z,12.57
2022-07-25T20:36:43.117Z,13.30
2022-07-25T20:39:10.603Z,13.75
2022-07-25T20:41:38.339Z,14.98
2022-07-25T20:44:05.880Z,17.67
2022-07-25T20:46:35.800Z,21.20
2022-07-25T20:49:09.016Z,22.52
2022-07-25T20:51:40.402Z,24.75
2022-07-25T20:54:07.874Z,22.20
2022-07-25T20:56:34.911Z,23.88
2022-07-25T20:59:01.745Z,23.42
2022-07-25T21:01:28.714Z,28.98
2022-07-25T21:03:55.716Z,32.05
2022-07-25T21:06:27.191Z,28.20
2022-07-25T21:08:54.649Z,29.40
2022-07-25T21:11:21.893Z,47.42
2022-07-25T21:13:49.143Z,53.15
2022-07-25T21:16:16.155Z,59.00
2022-07-25T21:18:43.117Z,75.60
2022-07-25T21:21:12.334Z,81.93
2022-07-25T21:23:40.626Z,89.32
2022-07-25T21:26:07.496Z,95.05
2022-07-25T21:28:34.321Z,95.43
2022-07-25T21:31:01.217Z,96.05
2022-07-25T21:33:28.116Z,95.07
2022-07-25T21:35:55.461Z,84.10
2022-07-25T21:38:26.778Z,90.78
2022-07-25T21:40:59.470Z,89.28
2022-07-25T21:43:26.401Z,91.07
2022-07-25T21:45:53.621Z,82.85
2022-07-25T21:48:40.783Z,87.05
2022-07-25T21:51:18.655Z,83.75
2022-07-25T21:53:47.843Z,90.18
2022-07-25T21:56:16.043Z,104.38
2022-07-25T21:58:43.254Z,110.35
2022-07-25T22:01:10.472Z,120.32
2022-07-25T22:03:37.742Z,113.35
2022-07-25T22:06:04.695Z,109.80
2022-07-25T22:08:31.705Z,124.47
2022-07-25T22:10:58.618Z,124.93
2022-07-25T22:13:25.499Z,122.68
2022-07-25T22:15:53.032Z,124.35
2022-07-25T22:18:20.054Z,122.68
2022-07-25T22:20:47.203Z,122.32
2022-07-25T22:23:14.197Z,118.05
2022-07-25T22:25:41.069Z,119.38
2022-07-25T22:28:09.398Z,105.53
2022-07-25T22:30:41.328Z,90.15
2022-07-25T22:33:08.194Z,80.20
2022-07-25T22:35:35.113Z,69.40
2022-07-25T22:38:01.977Z,38.05
2022-07-25T22:40:28.906Z,26.38
2022-07-25T22:42:55.735Z,15.20
2022-07-25T22:45:23.964Z,11.18
2022-07-25T22:47:51.257Z,8.93
2022-07-25T22:50:18.344Z,8.68
2022-07-25T22:52:45.185Z,8.07
2022-07-25T22:55:12.060Z,7.63
2022-07-25T22:57:39.354Z,8.02
2022-07-25T23:00:10.936Z,8.13
2022-07-25T23:02:39.156Z,7.88
2022-07-25T23:05:07.317Z,8.63
2022-07-25T23:07:35.181Z,8.10
2022-07-25T23:10:02.956Z,9.10
2022-07-25T23:12:29.847Z,10.70
2022-07-25T23:14:56.961Z,13.10
2022-07-25T23:17:24.678Z,16.35
2022-07-25T23:19:55.060Z,23.08
2022-07-25T23:22:25.473Z,22.35
2022-07-25T23:24:52.439Z,23.88
2022-07-25T23:27:19.577Z,21.75
2022-07-25T23:29:46.664Z,23.67
2022-07-25T23:32:13.717Z,21.83
2022-07-25T23:34:40.903Z,21.77
2022-07-25T23:37:07.819Z,21.60
2022-07-25T23:39:34.845Z,21.60
2022-07-25T23:42:03.500Z,20.17
2022-07-25T23:44:30.713Z,20.40
2022-07-25T23:46:59.718Z,19.10
2022-07-25T23:49:28.442Z,19.40
2022-07-25T23:51:57.148Z,16.65
2022-07-25T23:54:24.838Z,16.02
2022-07-25T23:56:52.376Z,14.10
2022-07-25T23:59:19.776Z,13.15
